Aberdeen, Idaho
Current Conditions -  °F | °C
As of 12:53 AM on Sunday 26 Oct 2014 (Local Time) from KPIH Reporting Station
Overcast Overcast  
Wind Chill: 57°   Ceiling: 5500
Heat Index: 57°   Visibility: 10mi
Dew Point: 32°   Wind: 30mph
Humidity: 39%   Direction: 270°W
Pressure: 29.97"   Gusts: 40mph
Location:  42.94°N, 112.84°W
Report Text: KPIH 260653Z AUTO 27026G35KT 10SM BKN055 OVC075 14/00 A2997 RMK AO2 PK WND 26035/0651 RAE19 SLP110 P0000 T01390000 402440006
Loading
Personal Weather Stations






























Interactive Weather Map
Tropical Storm Tracking
New forecast layout! Learn more

10-Day Weather Forecast

Advertisements
Track Severe Weather on mobile